Time;durP1;ratioP1;P1;durP2;ratioP2;P2;SDS_P1;SDS_P2;PMS_P1;PMS_P2;Temp;Humidity;BMP_temperature;BMP_pressure;BME280_temperature;BME280_humidity;BME280_pressure;Samples;Min_cycle;Max_cycle;Signal;HPM_P1;HPM_P2
2023/05/06 00:01:00;;;;;;;78.33;33.77;;;;;;;;;;5034514;28;20834;-77
2023/05/06 00:03:26;;;;;;;83.97;33.57;;;;;;;;;;5035240;28;20539;-77
2023/05/06 00:05:52;;;;;;;79.70;32.47;;;;;;;;;;5019033;28;20971;-77
2023/05/06 00:08:18;;;;;;;70.17;32.33;;;;;;;;;;5018705;28;20413;-77
2023/05/06 00:10:45;;;;;;;76.50;32.67;;;;;;;;;;5036083;28;20470;-77
2023/05/06 00:13:11;;;;;;;69.25;32.03;;;;;;;;;;5035981;28;20409;-77
2023/05/06 00:15:37;;;;;;;74.97;32.60;;;;;;;;;;5018272;28;20182;-77
2023/05/06 00:18:03;;;;;;;88.40;36.15;;;;;;;;;;5036408;28;20183;-77
2023/05/06 00:20:30;;;;;;;66.15;31.17;;;;;;;;;;5036138;28;20618;-77
2023/05/06 00:22:56;;;;;;;72.43;32.85;;;;;;;;;;5036356;28;20202;-77
2023/05/06 00:25:22;;;;;;;79.20;31.27;;;;;;;;;;5036158;28;20198;-77
2023/05/06 00:27:48;;;;;;;69.45;31.60;;;;;;;;;;5036043;28;20261;-77
2023/05/06 00:30:14;;;;;;;69.77;32.83;;;;;;;;;;5017988;28;20634;-77
2023/05/06 00:32:40;;;;;;;78.25;33.22;;;;;;;;;;5036079;28;20417;-77
2023/05/06 00:35:06;;;;;;;75.88;32.72;;;;;;;;;;5035993;28;20637;-79
2023/05/06 00:37:33;;;;;;;76.18;30.70;;;;;;;;;;5035442;28;20182;-77
2023/05/06 00:39:59;;;;;;;70.70;31.93;;;;;;;;;;5034357;28;20211;-78
2023/05/06 00:42:25;;;;;;;68.90;30.33;;;;;;;;;;5034489;28;20551;-77
2023/05/06 00:44:51;;;;;;;68.90;31.80;;;;;;;;;;5018639;28;20192;-77
2023/05/06 00:47:18;;;;;;;90.97;34.33;;;;;;;;;;5018434;28;20182;-77
2023/05/06 00:49:48;;;;;;;71.60;31.10;;;;;;;;;;5036171;28;20540;-77
2023/05/06 00:52:14;;;;;;;78.67;33.33;;;;;;;;;;5034496;28;20225;-78
2023/05/06 00:54:41;;;;;;;79.10;35.75;;;;;;;;;;5035367;28;20992;-78
2023/05/06 00:57:07;;;;;;;96.07;34.67;;;;;;;;;;5018365;28;20185;-78
2023/05/06 00:59:33;;;;;;;71.20;31.63;;;;;;;;;;5035986;28;20174;-77
2023/05/06 01:02:00;;;;;;;66.20;31.83;;;;;;;;;;5034197;28;20275;-78
2023/05/06 01:04:27;;;;;;;82.25;32.88;;;;;;;;;;5034459;28;20285;-77
2023/05/06 01:06:56;;;;;;;83.47;35.25;;;;;;;;;;5034315;28;20189;-77
2023/05/06 01:09:32;;;;;;;80.72;33.72;;;;;;;;;;5035669;28;20170;-77
2023/05/06 01:12:20;;;;;;;74.13;32.55;;;;;;;;;;5035743;28;20165;-78
2023/05/06 01:15:08;;;;;;;64.13;32.28;;;;;;;;;;5034405;28;20183;-78
2023/05/06 01:17:35;;;;;;;67.85;29.98;;;;;;;;;;5034189;28;20189;-77
2023/05/06 01:20:06;;;;;;;66.15;29.73;;;;;;;;;;5035424;28;20523;-77
2023/05/06 01:22:33;;;;;;;70.38;29.63;;;;;;;;;;5035253;28;20256;-77
2023/05/06 01:25:00;;;;;;;63.60;29.83;;;;;;;;;;5035493;28;20213;-78
2023/05/06 01:27:28;;;;;;;73.95;31.83;;;;;;;;;;5035425;28;20444;-77
2023/05/06 01:29:54;;;;;;;76.15;32.10;;;;;;;;;;5034366;28;20628;-77
2023/05/06 01:32:38;;;;;;;73.95;32.08;;;;;;;;;;5035579;28;20527;-77
2023/05/06 01:35:11;;;;;;;73.65;34.60;;;;;;;;;;5034538;28;20174;-77
2023/05/06 01:37:43;;;;;;;68.55;30.90;;;;;;;;;;5035584;28;20193;-77
2023/05/06 01:40:09;;;;;;;76.82;29.80;;;;;;;;;;5035789;28;20186;-77
2023/05/06 01:42:36;;;;;;;73.82;32.17;;;;;;;;;;5017795;28;20218;-77
2023/05/06 01:45:03;;;;;;;67.05;30.17;;;;;;;;;;5036043;28;20189;-77
2023/05/06 01:47:29;;;;;;;66.95;29.00;;;;;;;;;;5035587;28;20175;-77
2023/05/06 01:49:56;;;;;;;65.50;30.58;;;;;;;;;;5035438;28;20170;-77
2023/05/06 01:52:22;;;;;;;65.75;31.67;;;;;;;;;;5035353;28;20185;-77
2023/05/06 01:54:48;;;;;;;73.63;33.47;;;;;;;;;;5035627;28;20186;-76
2023/05/06 01:57:14;;;;;;;57.30;26.80;;;;;;;;;;5034998;28;20420;-77
2023/05/06 01:59:40;;;;;;;62.88;28.48;;;;;;;;;;5037706;28;20410;-75
2023/05/06 02:02:07;;;;;;;55.67;28.40;;;;;;;;;;5054901;28;20316;-76
2023/05/06 02:04:33;;;;;;;62.67;25.85;;;;;;;;;;5037086;28;20412;-76
2023/05/06 02:06:59;;;;;;;64.32;28.55;;;;;;;;;;5055811;28;20182;-76
2023/05/06 02:09:25;;;;;;;71.88;30.77;;;;;;;;;;5058311;28;20177;-76
2023/05/06 02:11:51;;;;;;;65.97;27.27;;;;;;;;;;5059066;28;20539;-76
2023/05/06 02:14:17;;;;;;;53.70;26.17;;;;;;;;;;5058312;28;20180;-77
2023/05/06 02:16:42;;;;;;;58.50;28.30;;;;;;;;;;5058663;28;20416;-76
2023/05/06 02:19:08;;;;;;;58.97;27.67;;;;;;;;;;5058266;28;20400;-76
2023/05/06 02:21:34;;;;;;;57.33;27.98;;;;;;;;;;5040470;28;20529;-76
2023/05/06 02:24:00;;;;;;;71.97;30.75;;;;;;;;;;5058194;28;20192;-76
2023/05/06 02:26:26;;;;;;;80.93;28.43;;;;;;;;;;5058343;28;20170;-76
2023/05/06 02:28:52;;;;;;;57.80;26.70;;;;;;;;;;5058051;28;20458;-76
2023/05/06 02:31:18;;;;;;;66.33;29.47;;;;;;;;;;5040345;28;20412;-76
2023/05/06 02:33:45;;;;;;;59.10;26.80;;;;;;;;;;5057829;28;20465;-76
2023/05/06 02:36:11;;;;;;;62.70;25.92;;;;;;;;;;5058147;28;20178;-76
2023/05/06 02:38:37;;;;;;;55.83;27.87;;;;;;;;;;5040221;28;20208;-76
2023/05/06 02:41:03;;;;;;;58.37;26.70;;;;;;;;;;5040612;28;20497;-76
2023/05/06 02:43:29;;;;;;;63.27;26.53;;;;;;;;;;5057558;28;20471;-77
2023/05/06 02:45:55;;;;;;;60.95;26.75;;;;;;;;;;5040553;28;20459;-76
2023/05/06 02:48:21;;;;;;;60.75;26.17;;;;;;;;;;5040456;28;20630;-77
2023/05/06 02:50:47;;;;;;;57.72;28.55;;;;;;;;;;5023873;28;20188;-76
2023/05/06 02:53:13;;;;;;;53.23;28.43;;;;;;;;;;5040047;28;20193;-76
2023/05/06 02:55:39;;;;;;;53.88;25.63;;;;;;;;;;5058011;28;20400;-77
2023/05/06 02:58:05;;;;;;;65.40;26.45;;;;;;;;;;5058262;28;20178;-77
2023/05/06 03:00:31;;;;;;;55.67;26.33;;;;;;;;;;5057529;28;20181;-76
2023/05/06 03:02:57;;;;;;;62.45;27.45;;;;;;;;;;5040216;28;20472;-76
2023/05/06 03:05:23;;;;;;;57.15;28.10;;;;;;;;;;5039994;28;20208;-76
2023/05/06 03:07:49;;;;;;;47.90;24.80;;;;;;;;;;5057748;28;20533;-75
2023/05/06 03:10:15;;;;;;;54.55;26.85;;;;;;;;;;5057672;28;20169;-78
2023/05/06 03:12:41;;;;;;;54.20;27.38;;;;;;;;;;5039775;28;20177;-76
2023/05/06 03:15:07;;;;;;;58.97;24.90;;;;;;;;;;5057724;28;20264;-76
2023/05/06 03:17:33;;;;;;;44.67;25.52;;;;;;;;;;5057209;28;20177;-75
2023/05/06 03:19:59;;;;;;;51.47;25.90;;;;;;;;;;5022262;28;20182;-76
2023/05/06 03:22:25;;;;;;;56.22;25.60;;;;;;;;;;5057124;28;20874;-76
2023/05/06 03:24:51;;;;;;;60.63;26.80;;;;;;;;;;5057512;28;20263;-76
2023/05/06 03:27:17;;;;;;;60.23;25.93;;;;;;;;;;5057366;28;20770;-76
2023/05/06 03:29:43;;;;;;;50.67;25.90;;;;;;;;;;5057283;28;20412;-76
2023/05/06 03:32:09;;;;;;;50.33;25.10;;;;;;;;;;5057521;28;20460;-76
2023/05/06 03:34:35;;;;;;;46.60;22.83;;;;;;;;;;5039416;28;20231;-76
2023/05/06 03:37:01;;;;;;;43.53;23.13;;;;;;;;;;5057291;28;20255;-75
2023/05/06 03:39:28;;;;;;;40.47;20.98;;;;;;;;;;5056583;28;20586;-76
2023/05/06 03:41:54;;;;;;;47.00;23.05;;;;;;;;;;5056935;28;20205;-76
2023/05/06 03:44:20;;;;;;;48.08;23.50;;;;;;;;;;5057386;28;20178;-76
2023/05/06 03:46:46;;;;;;;51.40;23.80;;;;;;;;;;5057099;28;20181;-76
2023/05/06 03:49:12;;;;;;;40.97;21.85;;;;;;;;;;5039329;28;20272;-76
2023/05/06 03:51:38;;;;;;;36.60;21.27;;;;;;;;;;5057059;28;20178;-76
2023/05/06 03:54:04;;;;;;;36.28;21.27;;;;;;;;;;5056442;28;20219;-76
2023/05/06 03:56:30;;;;;;;39.90;21.85;;;;;;;;;;5056792;28;20510;-75
2023/05/06 03:58:56;;;;;;;36.90;19.73;;;;;;;;;;5057112;28;20188;-76
2023/05/06 04:01:22;;;;;;;43.38;21.30;;;;;;;;;;5056324;28;20217;-75
2023/05/06 04:03:48;;;;;;;37.97;22.02;;;;;;;;;;5039147;28;20216;-75
2023/05/06 04:06:14;;;;;;;37.38;21.13;;;;;;;;;;5039188;28;20184;-75
2023/05/06 04:08:40;;;;;;;39.67;20.67;;;;;;;;;;5056961;28;20174;-75
2023/05/06 04:11:06;;;;;;;40.28;19.48;;;;;;;;;;5056941;28;20197;-75
2023/05/06 04:13:35;;;;;;;40.00;21.33;;;;;;;;;;5056505;28;20169;-76
2023/05/06 04:16:02;;;;;;;39.28;19.35;;;;;;;;;;5056718;28;20261;-75
2023/05/06 04:18:29;;;;;;;41.65;21.25;;;;;;;;;;5056328;28;20227;-76
2023/05/06 04:20:55;;;;;;;41.78;19.65;;;;;;;;;;5055993;28;20176;-75
2023/05/06 04:23:21;;;;;;;34.00;18.83;;;;;;;;;;5056220;28;20193;-76
2023/05/06 04:25:48;;;;;;;32.75;17.73;;;;;;;;;;5038400;28;20669;-76
2023/05/06 04:28:15;;;;;;;43.17;20.13;;;;;;;;;;5056508;28;20180;-75
2023/05/06 04:30:41;;;;;;;27.83;18.08;;;;;;;;;;5037767;28;20185;-76
2023/05/06 04:33:07;;;;;;;34.50;19.13;;;;;;;;;;5038717;28;20220;-75
2023/05/06 04:35:33;;;;;;;33.78;18.15;;;;;;;;;;5056167;28;20261;-76
2023/05/06 04:37:59;;;;;;;27.13;17.65;;;;;;;;;;5038700;28;20177;-76
2023/05/06 04:40:26;;;;;;;36.53;18.45;;;;;;;;;;5056125;28;20166;-76
2023/05/06 04:42:53;;;;;;;28.98;16.70;;;;;;;;;;5056403;28;20280;-75
2023/05/06 04:45:19;;;;;;;29.55;16.83;;;;;;;;;;5056498;28;20537;-75
2023/05/06 04:47:45;;;;;;;30.13;17.38;;;;;;;;;;5056107;28;20260;-76
2023/05/06 04:50:11;;;;;;;30.42;15.55;;;;;;;;;;5056035;28;20169;-75
2023/05/06 04:52:37;;;;;;;27.65;14.98;;;;;;;;;;5056504;28;20606;-75
2023/05/06 04:55:04;;;;;;;30.50;15.55;;;;;;;;;;5038382;28;20180;-75
2023/05/06 04:57:30;;;;;;;31.45;16.00;;;;;;;;;;5055871;28;20184;-75
2023/05/06 04:59:57;;;;;;;26.40;14.63;;;;;;;;;;5056275;28;20169;-75
2023/05/06 05:02:23;;;;;;;22.73;13.82;;;;;;;;;;5038167;28;20264;-76
2023/05/06 05:04:49;;;;;;;26.40;15.02;;;;;;;;;;5056311;28;20652;-75
2023/05/06 05:07:15;;;;;;;21.02;13.30;;;;;;;;;;5056525;28;20174;-75
2023/05/06 05:09:41;;;;;;;26.17;15.45;;;;;;;;;;5056126;28;20166;-75
2023/05/06 05:12:07;;;;;;;23.70;13.90;;;;;;;;;;5056490;28;20265;-75
2023/05/06 05:14:33;;;;;;;27.17;14.80;;;;;;;;;;5055866;28;20205;-76
2023/05/06 05:16:59;;;;;;;25.55;14.90;;;;;;;;;;5038436;28;20181;-75
2023/05/06 05:19:25;;;;;;;27.52;13.80;;;;;;;;;;5038498;28;20189;-76
2023/05/06 05:21:51;;;;;;;23.55;14.32;;;;;;;;;;5038315;28;20248;-75
2023/05/06 05:24:17;;;;;;;22.67;13.87;;;;;;;;;;5056269;28;20526;-75
2023/05/06 05:26:43;;;;;;;23.35;14.48;;;;;;;;;;5056128;28;20419;-75
2023/05/06 05:29:10;;;;;;;26.23;14.10;;;;;;;;;;5055778;28;20182;-75
2023/05/06 05:31:36;;;;;;;25.70;16.55;;;;;;;;;;5055180;28;20177;-75
2023/05/06 05:34:02;;;;;;;26.65;15.25;;;;;;;;;;5056109;28;20182;-76
2023/05/06 05:36:28;;;;;;;22.40;15.40;;;;;;;;;;5038116;28;20178;-76
2023/05/06 05:38:54;;;;;;;29.25;14.60;;;;;;;;;;5056174;28;20260;-75
2023/05/06 05:41:20;;;;;;;25.10;16.42;;;;;;;;;;5055823;28;20197;-75
2023/05/06 05:43:46;;;;;;;24.40;13.70;;;;;;;;;;5059167;28;20177;-76
2023/05/06 05:46:12;;;;;;;23.08;14.57;;;;;;;;;;5059605;28;20536;-75
2023/05/06 05:48:39;;;;;;;22.73;15.23;;;;;;;;;;5040537;28;20659;-75
2023/05/06 05:51:05;;;;;;;17.70;12.38;;;;;;;;;;5059059;28;20256;-75
2023/05/06 05:53:31;;;;;;;19.95;12.93;;;;;;;;;;5041446;28;20213;-76
2023/05/06 05:55:57;;;;;;;20.50;13.15;;;;;;;;;;5041583;28;20568;-76
2023/05/06 05:58:23;;;;;;;17.05;11.65;;;;;;;;;;5059603;28;20316;-76
2023/05/06 06:00:49;;;;;;;22.42;13.65;;;;;;;;;;5041253;28;20232;-76
2023/05/06 06:03:17;;;;;;;21.33;14.52;;;;;;;;;;5059332;28;20197;-76
2023/05/06 06:05:43;;;;;;;19.05;13.85;;;;;;;;;;5040272;28;20181;-76
2023/05/06 06:08:09;;;;;;;21.63;14.98;;;;;;;;;;5058658;28;20184;-76
2023/05/06 06:10:35;;;;;;;26.25;15.02;;;;;;;;;;5058742;28;20177;-76
2023/05/06 06:13:01;;;;;;;22.58;15.63;;;;;;;;;;5059251;28;20174;-76
2023/05/06 06:15:28;;;;;;;21.92;14.77;;;;;;;;;;5040940;28;20265;-76
2023/05/06 06:17:54;;;;;;;25.38;15.65;;;;;;;;;;5058943;28;20642;-76
2023/05/06 06:20:20;;;;;;;26.77;16.88;;;;;;;;;;5041563;28;20510;-76
2023/05/06 06:22:46;;;;;;;25.75;15.25;;;;;;;;;;5058771;28;20231;-76
2023/05/06 06:25:12;;;;;;;22.00;15.17;;;;;;;;;;5059020;28;20205;-76
2023/05/06 06:27:38;;;;;;;20.25;11.93;;;;;;;;;;5058976;28;20466;-76
2023/05/06 06:30:04;;;;;;;17.00;11.83;;;;;;;;;;5058769;28;20707;-76
2023/05/06 06:32:30;;;;;;;13.20;10.70;;;;;;;;;;5059585;28;20900;-76
2023/05/06 06:34:56;;;;;;;13.23;9.50;;;;;;;;;;5059067;28;20396;-77
2023/05/06 06:37:22;;;;;;;16.53;11.20;;;;;;;;;;5059025;28;20375;-76
2023/05/06 06:39:48;;;;;;;13.50;10.82;;;;;;;;;;5040641;28;20423;-76
2023/05/06 06:42:14;;;;;;;17.23;10.80;;;;;;;;;;5058660;28;20211;-77
2023/05/06 06:44:40;;;;;;;18.20;12.00;;;;;;;;;;5058297;28;20237;-76
2023/05/06 06:47:06;;;;;;;15.30;11.67;;;;;;;;;;5039901;28;20912;-89
2023/05/06 06:49:32;;;;;;;15.00;11.63;;;;;;;;;;5023723;28;20785;-91
2023/05/06 06:51:59;;;;;;;15.90;11.00;;;;;;;;;;5057764;28;20462;-91
2023/05/06 06:54:25;;;;;;;15.53;12.23;;;;;;;;;;5037445;28;20431;-90
2023/05/06 06:56:57;;;;;;;15.73;11.37;;;;;;;;;;4829590;28;20462;-92
2023/05/06 06:59:23;;;;;;;16.97;12.43;;;;;;;;;;4840729;28;20461;-91
2023/05/06 07:01:49;;;;;;;14.83;9.83;;;;;;;;;;4867136;28;20558;-88
2023/05/06 07:04:15;;;;;;;11.23;8.90;;;;;;;;;;4982694;28;20471;-87
2023/05/06 07:06:41;;;;;;;8.13;7.00;;;;;;;;;;5004619;28;20533;-86
2023/05/06 07:09:07;;;;;;;11.17;8.43;;;;;;;;;;5017412;28;20514;-87
2023/05/06 07:11:33;;;;;;;9.10;6.80;;;;;;;;;;5016829;28;20416;-86
2023/05/06 07:13:59;;;;;;;8.60;7.10;;;;;;;;;;5034301;28;20440;-87
2023/05/06 07:16:25;;;;;;;11.00;7.33;;;;;;;;;;5033830;28;20752;-88
2023/05/06 07:18:52;;;;;;;9.40;8.13;;;;;;;;;;5016500;28;20725;-86
2023/05/06 07:21:18;;;;;;;9.27;7.73;;;;;;;;;;5035262;28;20439;-87
2023/05/06 07:23:44;;;;;;;10.10;7.80;;;;;;;;;;5016408;28;20460;-87
2023/05/06 07:26:10;;;;;;;9.57;7.43;;;;;;;;;;5016967;28;20402;-88
2023/05/06 07:28:36;;;;;;;9.80;7.77;;;;;;;;;;5016074;28;20882;-86
2023/05/06 07:31:02;;;;;;;9.00;7.33;;;;;;;;;;5016666;28;20528;-86
2023/05/06 07:33:28;;;;;;;7.73;6.53;;;;;;;;;;5032660;28;20401;-87
2023/05/06 07:35:55;;;;;;;6.83;6.17;;;;;;;;;;5016722;28;20420;-87
2023/05/06 07:38:24;;;;;;;8.60;6.40;;;;;;;;;;5015996;28;20901;-88
2023/05/06 07:40:50;;;;;;;7.20;6.40;;;;;;;;;;5034064;28;20415;-86
2023/05/06 07:43:17;;;;;;;7.37;6.40;;;;;;;;;;5016487;28;20453;-91
2023/05/06 07:45:43;;;;;;;9.33;6.37;;;;;;;;;;5015588;28;20433;-89
2023/05/06 07:48:09;;;;;;;10.77;6.10;;;;;;;;;;5016811;28;20905;-86
2023/05/06 07:50:35;;;;;;;6.30;5.70;;;;;;;;;;5033919;28;20376;-87
2023/05/06 07:53:02;;;;;;;7.70;6.30;;;;;;;;;;5016349;28;20474;-86
2023/05/06 07:55:28;;;;;;;9.33;5.57;;;;;;;;;;5016145;28;20409;-86
2023/05/06 07:57:54;;;;;;;6.73;5.80;;;;;;;;;;5016230;28;20429;-87
2023/05/06 08:00:20;;;;;;;7.70;5.80;;;;;;;;;;5034153;28;20480;-85
2023/05/06 08:02:47;;;;;;;5.37;4.10;;;;;;;;;;5033671;28;20459;-85
2023/05/06 08:05:13;;;;;;;3.60;2.40;;;;;;;;;;5014820;28;20425;-86
2023/05/06 08:07:41;;;;;;;4.30;2.70;;;;;;;;;;5033006;28;20386;-85
2023/05/06 08:10:07;;;;;;;2.50;2.20;;;;;;;;;;5015534;28;20403;-85
2023/05/06 08:12:34;;;;;;;2.40;2.07;;;;;;;;;;5015327;28;20438;-85
2023/05/06 08:15:00;;;;;;;2.53;2.33;;;;;;;;;;5015182;28;20383;-84
2023/05/06 08:17:26;;;;;;;1.53;1.43;;;;;;;;;;5015475;28;20886;-84
2023/05/06 08:19:52;;;;;;;1.87;1.40;;;;;;;;;;5030972;28;20400;-84
2023/05/06 08:22:19;;;;;;;1.37;1.20;;;;;;;;;;5015531;28;20446;-87
2023/05/06 08:24:45;;;;;;;1.77;1.10;;;;;;;;;;5014701;28;20413;-84
2023/05/06 08:27:11;;;;;;;1.37;1.17;;;;;;;;;;5032342;28;20409;-87
2023/05/06 08:29:37;;;;;;;2.00;1.73;;;;;;;;;;5030927;28;20398;-87
2023/05/06 08:32:03;;;;;;;2.13;1.50;;;;;;;;;;5032968;28;20424;-87
2023/05/06 08:34:29;;;;;;;5.77;1.20;;;;;;;;;;5016746;28;20388;-87
2023/05/06 08:36:55;;;;;;;2.00;1.50;;;;;;;;;;5016370;28;20417;-87
2023/05/06 08:39:21;;;;;;;5.43;1.90;;;;;;;;;;5016277;28;20970;-88
2023/05/06 08:41:50;;;;;;;1.40;1.30;;;;;;;;;;5015933;28;20448;-90
2023/05/06 08:44:18;;;;;;;1.67;1.17;;;;;;;;;;5033934;28;20432;-87
2023/05/06 08:46:44;;;;;;;2.47;1.40;;;;;;;;;;5016323;28;20455;-89
2023/05/06 08:49:11;;;;;;;1.20;1.07;;;;;;;;;;5016206;28;20748;-89
2023/05/06 08:51:37;;;;;;;1.43;1.10;;;;;;;;;;5015870;28;20416;-89
2023/05/06 08:54:03;;;;;;;2.70;1.43;;;;;;;;;;5016864;28;20904;-90
2023/05/06 08:56:32;;;;;;;3.13;1.30;;;;;;;;;;5016611;28;20416;-90
2023/05/06 08:58:58;;;;;;;1.27;1.10;;;;;;;;;;5034213;28;20397;-89
2023/05/06 09:01:28;;;;;;;1.10;0.87;;;;;;;;;;5033999;28;20452;-90
2023/05/06 09:03:55;;;;;;;1.30;0.90;;;;;;;;;;5016117;28;20468;-91
2023/05/06 09:06:21;;;;;;;1.77;1.40;;;;;;;;;;5016329;28;20419;-89
2023/05/06 09:08:47;;;;;;;1.33;1.10;;;;;;;;;;5032373;28;20742;-88
2023/05/06 09:11:21;;;;;;;2.27;1.00;;;;;;;;;;5015879;28;20463;-89
2023/05/06 09:13:47;;;;;;;2.33;1.17;;;;;;;;;;5015757;28;20408;-88
2023/05/06 09:16:27;;;;;;;2.27;1.10;;;;;;;;;;5033564;28;20412;-88
2023/05/06 09:18:53;;;;;;;1.37;1.07;;;;;;;;;;5037450;28;20424;-87
2023/05/06 09:21:19;;;;;;;1.40;1.17;;;;;;;;;;5020024;28;20487;-88
2023/05/06 09:23:45;;;;;;;1.10;0.80;;;;;;;;;;5037207;28;20492;-87
2023/05/06 09:26:11;;;;;;;1.60;1.07;;;;;;;;;;5019905;28;20421;-89
2023/05/06 09:28:37;;;;;;;1.70;0.93;;;;;;;;;;5037546;28;20401;-88
2023/05/06 09:31:03;;;;;;;2.03;1.10;;;;;;;;;;5019791;28;20474;-87
2023/05/06 09:33:29;;;;;;;1.50;1.00;;;;;;;;;;5019221;28;20444;-89
2023/05/06 09:35:56;;;;;;;2.93;0.97;;;;;;;;;;5037859;28;20995;-88
2023/05/06 09:38:22;;;;;;;2.70;1.20;;;;;;;;;;5039381;28;20404;-88
2023/05/06 09:40:48;;;;;;;1.73;1.10;;;;;;;;;;5038717;28;20411;-87
2023/05/06 09:43:14;;;;;;;1.33;0.83;;;;;;;;;;5039266;28;20955;-88
2023/05/06 09:45:40;;;;;;;1.43;0.97;;;;;;;;;;5038810;28;20494;-86
2023/05/06 09:48:08;;;;;;;3.67;0.90;;;;;;;;;;5022015;28;20514;-88
2023/05/06 09:50:35;;;;;;;1.10;1.00;;;;;;;;;;5038541;28;20466;-87
2023/05/06 09:53:04;;;;;;;1.80;1.20;;;;;;;;;;5022123;28;20498;-87
2023/05/06 09:55:30;;;;;;;1.60;0.80;;;;;;;;;;5038697;28;20408;-87
2023/05/06 09:57:57;;;;;;;1.40;0.80;;;;;;;;;;5038269;28;20420;-87
2023/05/06 10:00:26;;;;;;;2.40;0.97;;;;;;;;;;5056295;28;20423;-86
2023/05/06 10:02:54;;;;;;;1.70;1.07;;;;;;;;;;5037698;28;20475;-87
2023/05/06 10:05:20;;;;;;;1.87;1.17;;;;;;;;;;5038465;28;20415;-88
2023/05/06 10:07:48;;;;;;;0.90;0.70;;;;;;;;;;5038268;28;20416;-87
2023/05/06 10:10:15;;;;;;;1.87;0.90;;;;;;;;;;5056261;28;20408;-88
2023/05/06 10:12:45;;;;;;;2.17;1.00;;;;;;;;;;5037987;28;20454;-88
2023/05/06 10:15:11;;;;;;;2.80;1.10;;;;;;;;;;5038505;28;20435;-88
2023/05/06 10:17:39;;;;;;;2.53;1.00;;;;;;;;;;5038503;28;20404;-91
2023/05/06 10:20:06;;;;;;;1.13;0.90;;;;;;;;;;5056431;28;20411;-83
2023/05/06 10:22:52;;;;;;;3.23;1.10;;;;;;;;;;5021564;28;20475;-86
2023/05/06 10:25:35;;;;;;;1.80;1.20;;;;;;;;;;5055990;28;20410;-87
2023/05/06 10:28:03;;;;;;;14.00;4.03;;;;;;;;;;5054490;28;20389;-87
2023/05/06 10:30:29;;;;;;;4.30;1.70;;;;;;;;;;5037326;28;20758;-88
2023/05/06 10:32:56;;;;;;;3.80;2.07;;;;;;;;;;5037612;28;20420;-87
2023/05/06 10:35:31;;;;;;;1.97;1.10;;;;;;;;;;5055973;28;20400;-89
2023/05/06 10:37:58;;;;;;;2.30;0.90;;;;;;;;;;5037999;28;20434;-88
2023/05/06 10:40:25;;;;;;;2.47;1.07;;;;;;;;;;5037886;28;20413;-88
2023/05/06 10:42:51;;;;;;;2.33;0.93;;;;;;;;;;5055285;28;20533;-87
2023/05/06 10:45:17;;;;;;;2.20;1.00;;;;;;;;;;5055617;28;20403;-88
2023/05/06 10:47:52;;;;;;;2.90;0.90;;;;;;;;;;5021310;28;20862;-87
2023/05/06 10:50:20;;;;;;;1.30;0.70;;;;;;;;;;5037921;28;20411;-88
2023/05/06 10:52:46;;;;;;;3.43;1.23;;;;;;;;;;5037530;28;20416;-88
2023/05/06 10:55:26;;;;;;;2.20;1.10;;;;;;;;;;5021403;28;20416;-89
2023/05/06 10:58:02;;;;;;;1.67;0.97;;;;;;;;;;5037528;28;20428;-88
2023/05/06 11:00:32;;;;;;;1.30;1.00;;;;;;;;;;5055124;28;20392;-87
2023/05/06 11:03:05;;;;;;;2.40;1.03;;;;;;;;;;5037027;28;20460;-88
2023/05/06 11:05:32;;;;;;;2.80;0.97;;;;;;;;;;5037372;28;20416;-87
2023/05/06 11:08:08;;;;;;;2.13;1.17;;;;;;;;;;5037089;28;20416;-87
2023/05/06 11:10:35;;;;;;;2.03;1.10;;;;;;;;;;5031160;28;20447;-86
2023/05/06 11:13:19;;;;;;;2.90;0.97;;;;;;;;;;5034602;28;20889;-87
2023/05/06 11:15:45;;;;;;;2.83;0.97;;;;;;;;;;5017024;28;20421;-87
2023/05/06 11:18:23;;;;;;;1.63;0.80;;;;;;;;;;5001256;28;20818;-87
2023/05/06 11:20:50;;;;;;;2.70;0.90;;;;;;;;;;5017075;28;20484;-88
2023/05/06 11:23:18;;;;;;;1.50;0.90;;;;;;;;;;5035274;28;20460;-87
2023/05/06 11:25:46;;;;;;;2.23;0.87;;;;;;;;;;5016963;28;20421;-87
2023/05/06 11:28:13;;;;;;;1.67;0.80;;;;;;;;;;5017224;28;20997;-88
2023/05/06 11:30:41;;;;;;;1.33;0.90;;;;;;;;;;5014129;28;20440;-88
2023/05/06 11:33:07;;;;;;;1.10;0.80;;;;;;;;;;5016674;28;20422;-88
2023/05/06 11:35:37;;;;;;;1.43;0.83;;;;;;;;;;5017011;28;20821;-87
2023/05/06 11:38:03;;;;;;;2.53;0.87;;;;;;;;;;5016085;28;20778;-88
2023/05/06 11:40:30;;;;;;;2.50;1.00;;;;;;;;;;5035814;28;20530;-87
2023/05/06 11:43:08;;;;;;;2.03;0.90;;;;;;;;;;5025980;28;20459;-87
2023/05/06 11:45:41;;;;;;;5.47;1.10;;;;;;;;;;5048639;28;20447;-86
2023/05/06 11:48:07;;;;;;;3.50;1.00;;;;;;;;;;5040545;28;20415;-87
2023/05/06 11:50:33;;;;;;;2.37;1.00;;;;;;;;;;5025561;28;20408;-86
2023/05/06 11:52:59;;;;;;;1.30;0.90;;;;;;;;;;5025124;28;20432;-87
2023/05/06 11:55:25;;;;;;;2.30;1.07;;;;;;;;;;5007916;28;20824;-87
2023/05/06 11:57:52;;;;;;;1.13;0.60;;;;;;;;;;5041903;28;20738;-86
2023/05/06 12:00:19;;;;;;;1.93;1.10;;;;;;;;;;5050889;28;20415;-86
2023/05/06 12:02:45;;;;;;;1.40;1.00;;;;;;;;;;5036114;28;20475;-87
2023/05/06 12:05:12;;;;;;;1.23;0.80;;;;;;;;;;5036401;28;20407;-87
2023/05/06 12:07:41;;;;;;;1.97;0.90;;;;;;;;;;5019737;28;20419;-86
2023/05/06 12:10:07;;;;;;;2.40;1.20;;;;;;;;;;5035794;28;20422;-87
2023/05/06 12:12:33;;;;;;;1.40;1.00;;;;;;;;;;5053896;28;20412;-87
2023/05/06 12:14:59;;;;;;;2.00;0.87;;;;;;;;;;5035727;28;20400;-87
2023/05/06 12:17:25;;;;;;;1.17;0.73;;;;;;;;;;5053813;28;20754;-86
2023/05/06 12:19:51;;;;;;;2.50;1.30;;;;;;;;;;5019394;28;20423;-86
2023/05/06 12:22:19;;;;;;;1.67;0.90;;;;;;;;;;5053615;28;20455;-86
2023/05/06 12:24:45;;;;;;;2.10;0.90;;;;;;;;;;5053673;28;20416;-87
2023/05/06 12:27:11;;;;;;;1.43;0.73;;;;;;;;;;5053673;28;20396;-87
2023/05/06 12:29:37;;;;;;;2.50;1.10;;;;;;;;;;5053671;28;20400;-86
2023/05/06 12:32:10;;;;;;;2.53;1.10;;;;;;;;;;5052564;28;20420;-86
2023/05/06 12:34:40;;;;;;;1.50;1.10;;;;;;;;;;5046702;28;20409;-87
2023/05/06 12:37:07;;;;;;;2.30;1.30;;;;;;;;;;5041794;28;20842;-86
2023/05/06 12:39:37;;;;;;;2.63;1.10;;;;;;;;;;5024702;28;20823;-86
2023/05/06 12:42:03;;;;;;;2.07;0.90;;;;;;;;;;5023816;28;20448;-86
2023/05/06 12:44:33;;;;;;;2.07;1.10;;;;;;;;;;5013480;28;20423;-86
2023/05/06 12:47:03;;;;;;;2.07;0.87;;;;;;;;;;5053025;28;20915;-86
2023/05/06 12:49:44;;;;;;;3.17;1.30;;;;;;;;;;5053208;28;20389;-86
2023/05/06 12:52:10;;;;;;;1.47;0.90;;;;;;;;;;5052775;28;20382;-86
2023/05/06 12:54:36;;;;;;;2.07;0.90;;;;;;;;;;5035357;28;20408;-86
2023/05/06 12:57:03;;;;;;;1.37;1.07;;;;;;;;;;5035081;28;20420;-86
2023/05/06 12:59:29;;;;;;;1.73;0.80;;;;;;;;;;5052799;28;20400;-86
2023/05/06 13:01:55;;;;;;;1.63;0.80;;;;;;;;;;5034738;28;20472;-86
2023/05/06 13:04:21;;;;;;;3.37;1.00;;;;;;;;;;5035217;28;20903;-84
2023/05/06 13:06:49;;;;;;;1.30;0.90;;;;;;;;;;5035044;28;20458;-83
2023/05/06 13:09:15;;;;;;;1.73;1.03;;;;;;;;;;5041915;28;20413;-87
2023/05/06 13:11:42;;;;;;;1.43;1.10;;;;;;;;;;5033336;28;20892;-87
2023/05/06 13:14:09;;;;;;;1.70;0.87;;;;;;;;;;5015604;28;20502;-87
2023/05/06 13:16:35;;;;;;;2.50;1.33;;;;;;;;;;5033293;28;20543;-87
2023/05/06 13:19:02;;;;;;;1.30;0.90;;;;;;;;;;5033020;28;20397;-87
2023/05/06 13:21:28;;;;;;;3.57;1.00;;;;;;;;;;5033281;28;20401;-87
2023/05/06 13:23:54;;;;;;;5.27;1.30;;;;;;;;;;5032766;28;20511;-86
2023/05/06 13:26:20;;;;;;;2.73;1.10;;;;;;;;;;5033299;28;20453;-87
2023/05/06 13:28:46;;;;;;;2.40;0.90;;;;;;;;;;5033157;28;20405;-87
2023/05/06 13:31:12;;;;;;;2.70;1.27;;;;;;;;;;5033005;28;20421;-87
2023/05/06 13:33:38;;;;;;;3.90;1.30;;;;;;;;;;5032957;28;20492;-86
2023/05/06 13:36:05;;;;;;;2.20;1.10;;;;;;;;;;5032864;28;20854;-87
2023/05/06 13:38:31;;;;;;;2.63;0.80;;;;;;;;;;5033165;28;20401;-86
2023/05/06 13:40:57;;;;;;;3.67;1.60;;;;;;;;;;5017640;28;20435;-86
2023/05/06 13:43:26;;;;;;;1.70;0.80;;;;;;;;;;5017958;28;20471;-86
2023/05/06 13:45:52;;;;;;;5.43;1.50;;;;;;;;;;5015088;28;20782;-85
2023/05/06 13:48:18;;;;;;;2.00;1.00;;;;;;;;;;5033254;28;20463;-86
2023/05/06 13:50:45;;;;;;;2.80;1.03;;;;;;;;;;5032959;28;20883;-86
2023/05/06 13:53:11;;;;;;;1.30;1.10;;;;;;;;;;5015131;28;20429;-86
2023/05/06 13:55:37;;;;;;;3.20;1.40;;;;;;;;;;5032905;28;20393;-86
2023/05/06 13:58:04;;;;;;;3.97;1.43;;;;;;;;;;5032669;28;20408;-85
2023/05/06 14:00:30;;;;;;;2.70;1.17;;;;;;;;;;5032818;28;20463;-85
2023/05/06 14:02:56;;;;;;;7.40;1.53;;;;;;;;;;5000055;28;20476;-87
2023/05/06 14:05:22;;;;;;;3.87;1.70;;;;;;;;;;5036561;28;20435;-84
2023/05/06 14:07:48;;;;;;;3.40;1.30;;;;;;;;;;5036801;28;20375;-78
2023/05/06 14:10:14;;;;;;;3.40;1.70;;;;;;;;;;5018997;28;20420;-77
2023/05/06 14:12:41;;;;;;;4.20;1.40;;;;;;;;;;5018938;28;20384;-78
2023/05/06 14:15:07;;;;;;;3.33;2.10;;;;;;;;;;5036230;28;20387;-77
2023/05/06 14:17:33;;;;;;;4.50;3.10;;;;;;;;;;5018698;28;20413;-77
2023/05/06 14:19:59;;;;;;;2.97;2.50;;;;;;;;;;5019084;28;20470;-77
2023/05/06 14:22:27;;;;;;;4.23;2.13;;;;;;;;;;5018942;28;20473;-77
2023/05/06 14:24:53;;;;;;;2.63;1.90;;;;;;;;;;5036471;28;20380;-79
2023/05/06 14:27:19;;;;;;;2.73;2.00;;;;;;;;;;5018814;28;20388;-77
2023/05/06 14:29:45;;;;;;;3.63;1.63;;;;;;;;;;5002842;28;20402;-77